Terminal Aerodrome Forecast
Issued by NWS

Home | Current Version | Previous Version | Text Only | Print | Product List | Glossary Off
Versions: 1 2 3 4 5 6 7 8 9 10 11 12 13 14 15 16 17 18 19 20 21 22 23 24 25 26 27 28

306
FTUS43 KLOT 221733
TAFMDW
TAF
KMDW 221733Z 2218/2318 23015G23KT P6SM FEW100 SCT250
     FM222100 23015G23KT P6SM VCSH BKN060 BKN100
      TEMPO 2223/2301 5SM -SHRA
     FM230200 22010KT P6SM VCSH SCT025 BKN040
     FM230800 22007KT P6SM BKN020 OVC040
     FM231500 19008KT 6SM -SHRA BKN025 OVC040=

USA.gov is the U.S. government's official web portal to all federal, state and local government web resources and services.